createdAt,value
2023-04-18T00:01:21.421Z,70.23
2023-04-18T00:03:50.626Z,70.30
2023-04-18T00:06:19.357Z,72.93
2023-04-18T00:08:47.382Z,70.17
2023-04-18T00:11:15.393Z,75.33
2023-04-18T00:13:43.362Z,70.43
2023-04-18T00:16:13.284Z,70.77
2023-04-18T00:18:42.748Z,69.40
2023-04-18T00:21:10.815Z,71.10
2023-04-18T00:23:39.743Z,70.47
2023-04-18T00:26:07.805Z,70.60
2023-04-18T00:28:35.916Z,69.20
2023-04-18T00:31:04.269Z,69.73
2023-04-18T00:33:32.572Z,68.70
2023-04-18T00:36:02.217Z,68.20
2023-04-18T00:38:30.370Z,66.57
2023-04-18T00:40:58.669Z,67.63
2023-04-18T00:43:26.982Z,71.03
2023-04-18T00:45:57.082Z,68.57
2023-04-18T00:48:25.715Z,73.70
2023-04-18T00:50:54.879Z,68.90
2023-04-18T00:53:24.889Z,70.60
2023-04-18T00:55:53.528Z,70.83
2023-04-18T00:58:21.910Z,70.27
2023-04-18T01:00:50.176Z,71.57
2023-04-18T01:03:19.851Z,73.43
2023-04-18T01:05:48.137Z,73.73
2023-04-18T01:08:16.833Z,74.40
2023-04-18T01:10:46.716Z,73.17
2023-04-18T01:13:16.128Z,70.67
2023-04-18T01:15:45.514Z,69.30
2023-04-18T01:18:17.200Z,71.50
2023-04-18T01:20:47.760Z,68.80
2023-04-18T01:23:17.056Z,69.37
2023-04-18T01:25:47.661Z,71.73
2023-04-18T01:28:16.041Z,71.93
2023-04-18T01:30:44.197Z,72.60
2023-04-18T01:33:12.362Z,68.90
2023-04-18T01:35:40.454Z,70.63
2023-04-18T01:38:10.265Z,73.20
2023-04-18T01:40:38.446Z,69.13
2023-04-18T01:43:07.902Z,70.20
2023-04-18T01:45:35.963Z,74.10
2023-04-18T01:48:04.107Z,69.73
2023-04-18T01:50:32.368Z,74.07
2023-04-18T01:53:00.423Z,69.90
2023-04-18T01:55:28.401Z,71.10
2023-04-18T01:57:56.537Z,71.50
2023-04-18T02:00:26.256Z,71.57
2023-04-18T02:02:54.549Z,71.77
2023-04-18T02:05:22.739Z,71.57
2023-04-18T02:07:50.719Z,70.13
2023-04-18T02:10:18.977Z,71.70
2023-04-18T02:12:47.081Z,71.83
2023-04-18T02:15:15.121Z,72.93
2023-04-18T02:17:45.641Z,75.37
2023-04-18T02:20:15.752Z,70.97
2023-04-18T02:22:44.661Z,72.17
2023-04-18T02:25:12.647Z,71.90
2023-04-18T02:27:40.908Z,72.77
2023-04-18T02:30:09.841Z,72.93
2023-04-18T02:32:38.004Z,71.67
2023-04-18T02:35:08.361Z,72.23
2023-04-18T02:37:36.317Z,74.50
2023-04-18T02:40:05.681Z,74.20
2023-04-18T02:42:33.753Z,72.57
2023-04-18T02:45:01.795Z,70.00
2023-04-18T02:47:33.304Z,72.90
2023-04-18T02:50:03.530Z,72.77
2023-04-18T02:52:32.910Z,72.60
2023-04-18T02:55:00.871Z,72.40
2023-04-18T02:57:28.863Z,73.43
2023-04-18T02:59:56.863Z,71.50
2023-04-18T03:02:25.092Z,73.33
2023-04-18T03:04:53.220Z,72.00
2023-04-18T03:07:21.265Z,71.10
2023-04-18T03:09:52.181Z,72.83
2023-04-18T03:12:20.332Z,71.47
2023-04-18T03:14:48.425Z,72.27
2023-04-18T03:17:16.524Z,73.40
2023-04-18T03:19:44.966Z,71.90
2023-04-18T03:22:14.002Z,71.73
2023-04-18T03:24:42.063Z,74.77
2023-04-18T03:27:11.498Z,74.93
2023-04-18T03:29:39.637Z,77.13
2023-04-18T03:32:07.635Z,72.30
2023-04-18T03:34:36.094Z,75.57
2023-04-18T03:37:04.093Z,74.63
2023-04-18T03:39:32.029Z,70.27
2023-04-18T03:41:59.993Z,69.57
2023-04-18T03:44:29.330Z,69.80
2023-04-18T03:46:57.396Z,67.93
2023-04-18T03:49:25.429Z,66.83
2023-04-18T03:51:53.393Z,68.30
2023-04-18T03:54:21.449Z,68.60
2023-04-18T03:56:49.592Z,73.33
2023-04-18T03:59:17.671Z,67.47
2023-04-18T04:01:47.456Z,69.33
2023-04-18T04:04:16.062Z,70.00
2023-04-18T04:06:44.476Z,73.20
2023-04-18T04:09:12.473Z,66.80
2023-04-18T04:11:40.715Z,71.83
2023-04-18T04:14:08.693Z,74.13
2023-04-18T04:16:36.807Z,72.03
2023-04-18T04:19:06.208Z,67.73
2023-04-18T04:21:34.220Z,70.93
2023-04-18T04:24:02.755Z,68.13
2023-04-18T04:26:31.733Z,70.20
2023-04-18T04:28:59.805Z,68.53
2023-04-18T04:31:28.765Z,71.03
2023-04-18T04:33:56.765Z,67.43
2023-04-18T04:36:27.269Z,68.40
2023-04-18T04:38:55.451Z,70.80
2023-04-18T04:41:24.533Z,68.53
2023-04-18T04:43:53.150Z,71.63
2023-04-18T04:46:21.375Z,68.10
2023-04-18T04:48:49.674Z,71.37
2023-04-18T04:51:17.691Z,71.37
2023-04-18T04:53:47.137Z,69.07
2023-04-18T04:56:16.827Z,71.27
2023-04-18T04:58:45.204Z,70.30
2023-04-18T05:01:13.247Z,66.60
2023-04-18T05:03:41.413Z,69.53
2023-04-18T05:06:09.715Z,67.80
2023-04-18T05:08:37.770Z,73.93
2023-04-18T05:11:07.243Z,68.90
2023-04-18T05:13:35.287Z,72.63
2023-04-18T05:16:03.316Z,66.30
2023-04-18T05:18:33.075Z,69.23
2023-04-18T05:21:02.951Z,71.93
2023-04-18T05:23:31.404Z,70.53
2023-04-18T05:25:59.506Z,71.03
2023-04-18T05:28:29.033Z,71.33
2023-04-18T05:31:01.352Z,73.30
2023-04-18T05:33:29.796Z,72.20
2023-04-18T05:35:58.557Z,72.60
2023-04-18T05:38:26.992Z,73.53
2023-04-18T05:40:55.695Z,71.83
2023-04-18T05:43:24.545Z,71.60
2023-04-18T05:45:54.787Z,69.67
2023-04-18T05:48:25.154Z,73.33
2023-04-18T05:50:53.248Z,70.23
2023-04-18T05:53:21.410Z,68.27
2023-04-18T05:55:50.184Z,74.10
2023-04-18T05:58:18.159Z,75.33
2023-04-18T06:00:48.050Z,75.27
2023-04-18T06:03:17.590Z,70.57
2023-04-18T06:05:46.142Z,74.33
2023-04-18T06:08:14.237Z,71.57
2023-04-18T06:10:42.210Z,74.33
2023-04-18T06:13:10.247Z,73.67
2023-04-18T06:15:38.371Z,76.67
2023-04-18T06:18:06.772Z,71.00
2023-04-18T06:20:36.198Z,74.93
2023-04-18T06:23:04.127Z,78.03
2023-04-18T06:25:32.195Z,78.97
2023-04-18T06:28:01.938Z,80.40
2023-04-18T06:30:30.106Z,90.57
2023-04-18T06:32:58.268Z,88.57
2023-04-18T06:35:26.792Z,87.67
2023-04-18T06:37:56.284Z,88.03
2023-04-18T06:40:24.432Z,86.20
2023-04-18T06:42:52.488Z,91.00
2023-04-18T06:45:20.901Z,94.23
2023-04-18T06:47:49.771Z,94.37
2023-04-18T06:50:18.331Z,94.27
2023-04-18T06:52:46.352Z,97.70
2023-04-18T06:55:15.833Z,96.73
2023-04-18T06:57:44.737Z,99.10
2023-04-18T07:00:13.512Z,99.87
2023-04-18T07:02:42.231Z,105.57
2023-04-18T07:05:10.904Z,103.00
2023-04-18T07:07:39.520Z,104.13
2023-04-18T07:10:09.834Z,103.70
2023-04-18T07:12:39.318Z,104.50
2023-04-18T07:15:08.504Z,101.80
2023-04-18T07:17:37.044Z,102.27
2023-04-18T07:20:05.769Z,101.00
2023-04-18T07:22:33.788Z,96.67
2023-04-18T07:25:01.798Z,99.57
2023-04-18T07:27:29.763Z,98.77
2023-04-18T07:29:59.157Z,100.67
2023-04-18T07:32:27.195Z,96.43
2023-04-18T07:34:55.441Z,101.10
2023-04-18T07:37:23.489Z,100.27
2023-04-18T07:39:52.629Z,104.33
2023-04-18T07:42:20.652Z,105.10
2023-04-18T07:44:49.512Z,106.10
2023-04-18T07:47:22.266Z,107.40
2023-04-18T07:49:50.731Z,111.60
2023-04-18T07:52:19.004Z,113.90
2023-04-18T07:54:47.101Z,119.47
2023-04-18T07:57:15.118Z,119.60
2023-04-18T07:59:45.184Z,122.33
2023-04-18T08:02:13.301Z,120.70
2023-04-18T08:04:42.849Z,120.67
2023-04-18T08:07:11.187Z,118.73
2023-04-18T08:09:39.181Z,119.33
2023-04-18T08:12:07.447Z,121.70
2023-04-18T08:14:35.569Z,120.37
2023-04-18T08:17:03.741Z,117.73
2023-04-18T08:19:32.945Z,119.50
2023-04-18T08:22:11.084Z,118.73
2023-04-18T08:24:41.671Z,116.50
2023-04-18T08:27:14.481Z,114.53
2023-04-18T08:29:42.583Z,120.07
2023-04-18T08:32:11.230Z,114.93
2023-04-18T08:34:39.498Z,120.70
2023-04-18T08:37:08.952Z,122.80
2023-04-18T08:39:36.967Z,121.90
2023-04-18T08:42:07.590Z,124.13
2023-04-18T08:44:35.837Z,125.83
2023-04-18T08:47:03.861Z,130.47
2023-04-18T08:49:32.305Z,128.20
2023-04-18T08:52:02.570Z,130.73
2023-04-18T08:54:32.749Z,128.50
2023-04-18T08:57:07.425Z,129.80
2023-04-18T08:59:35.841Z,125.87
2023-04-18T09:02:05.395Z,132.70
2023-04-18T09:04:35.458Z,148.63
2023-04-18T09:07:04.296Z,142.20
2023-04-18T09:09:47.696Z,146.07
2023-04-18T09:12:18.327Z,145.73
2023-04-18T09:14:48.016Z,156.23
2023-04-18T09:17:18.240Z,158.97
2023-04-18T09:19:50.286Z,163.60
2023-04-18T09:22:18.939Z,166.60
2023-04-18T09:24:54.264Z,175.20
2023-04-18T09:27:23.358Z,177.97
2023-04-18T09:29:52.620Z,180.53
2023-04-18T09:32:24.957Z,183.93
2023-04-18T09:34:58.270Z,183.40
2023-04-18T09:37:27.354Z,192.63
2023-04-18T09:39:57.350Z,185.87
2023-04-18T09:42:28.169Z,189.80
2023-04-18T09:45:02.423Z,194.33
2023-04-18T09:47:30.898Z,193.20
2023-04-18T09:49:59.160Z,200.37
2023-04-18T09:52:27.197Z,207.93
2023-04-18T09:55:01.321Z,210.03
2023-04-18T09:57:31.026Z,218.83
2023-04-18T10:00:10.636Z,223.17
2023-04-18T10:02:55.931Z,225.10
2023-04-18T10:05:26.867Z,224.80
2023-04-18T10:07:55.972Z,234.10
2023-04-18T10:10:25.977Z,226.07
2023-04-18T10:12:56.119Z,237.57
2023-04-18T10:15:25.530Z,237.20
2023-04-18T10:18:04.608Z,241.53
2023-04-18T10:20:35.824Z,238.70
2023-04-18T10:23:38.278Z,249.60
2023-04-18T10:26:08.164Z,247.93
2023-04-18T10:28:54.505Z,255.90
2023-04-18T10:31:23.834Z,253.77
2023-04-18T10:36:28.181Z,265.65
2023-04-18T10:39:00.928Z,265.47
2023-04-18T10:41:31.034Z,269.33
2023-04-18T10:44:19.513Z,270.25
2023-04-18T10:47:32.864Z,272.20
2023-04-18T10:50:06.132Z,271.00
2023-04-18T10:52:35.076Z,265.98
2023-04-18T10:55:25.275Z,268.83
2023-04-18T10:57:56.525Z,261.92
2023-04-18T11:00:24.947Z,265.47
2023-04-18T11:02:59.214Z,266.20
2023-04-18T11:05:28.936Z,268.80
2023-04-18T11:07:57.090Z,269.47
2023-04-18T11:10:26.586Z,280.02
2023-04-18T11:12:56.382Z,280.57
2023-04-18T11:15:26.291Z,279.75
2023-04-18T11:17:59.672Z,284.83
2023-04-18T11:20:28.330Z,279.52
2023-04-18T11:22:58.201Z,286.33
2023-04-18T11:25:28.254Z,296.70
2023-04-18T11:28:00.897Z,287.73
2023-04-18T11:30:31.330Z,302.60
2023-04-18T11:32:59.355Z,306.90
2023-04-18T11:35:27.839Z,305.42
2023-04-18T11:37:56.194Z,306.60
2023-04-18T11:40:24.444Z,302.35
2023-04-18T11:42:55.440Z,311.83
2023-04-18T11:45:24.767Z,305.45
2023-04-18T11:47:58.068Z,306.92
2023-04-18T11:50:26.662Z,305.42
2023-04-18T11:52:55.856Z,298.92
2023-04-18T11:55:27.125Z,303.38
2023-04-18T11:57:56.413Z,297.10
2023-04-18T12:00:35.257Z,294.10
2023-04-18T12:03:05.295Z,296.83
2023-04-18T12:05:35.090Z,297.38
2023-04-18T12:08:11.281Z,291.60
2023-04-18T12:10:39.989Z,297.05
2023-04-18T12:13:09.385Z,309.55
2023-04-18T12:15:41.488Z,310.27
2023-04-18T12:18:09.641Z,303.20
2023-04-18T12:20:38.814Z,309.10
2023-04-18T12:23:07.976Z,305.30
2023-04-18T12:25:36.553Z,313.40
2023-04-18T12:28:14.774Z,314.67
2023-04-18T12:30:44.277Z,313.60
2023-04-18T12:33:12.703Z,311.55
2023-04-18T12:35:41.145Z,312.73
2023-04-18T12:38:09.142Z,312.42
2023-04-18T12:40:40.423Z,310.80
2023-04-18T12:43:08.961Z,302.92
2023-04-18T12:45:36.963Z,304.45
2023-04-18T12:48:06.671Z,295.80
2023-04-18T12:50:35.000Z,300.85
2023-04-18T12:53:03.460Z,306.63
2023-04-18T12:55:31.562Z,303.10
2023-04-18T12:57:59.609Z,303.98
2023-04-18T13:00:29.239Z,308.33
2023-04-18T13:02:58.033Z,306.97
2023-04-18T13:05:32.583Z,297.70
2023-04-18T13:08:15.274Z,301.50
2023-04-18T13:10:45.662Z,301.27
2023-04-18T13:13:13.982Z,316.45
2023-04-18T13:15:42.557Z,314.63
2023-04-18T13:18:10.717Z,307.75
2023-04-18T13:20:40.111Z,310.98
2023-04-18T13:23:08.100Z,315.02
2023-04-18T13:25:36.112Z,301.40
2023-04-18T13:28:04.069Z,306.75
2023-04-18T13:30:32.119Z,309.67
2023-04-18T13:33:00.183Z,302.33
2023-04-18T13:35:28.262Z,296.15
2023-04-18T13:37:57.603Z,302.95
2023-04-18T13:40:25.656Z,301.77
2023-04-18T13:42:53.721Z,303.85
2023-04-18T13:45:21.723Z,300.48
2023-04-18T13:47:49.895Z,297.60
2023-04-18T13:50:17.874Z,295.17
2023-04-18T13:52:48.040Z,296.35
2023-04-18T13:55:17.928Z,289.70
2023-04-18T13:57:45.915Z,298.92
2023-04-18T14:00:15.285Z,307.73
2023-04-18T14:02:43.500Z,307.50
2023-04-18T14:05:11.800Z,309.73
2023-04-18T14:07:40.143Z,307.27
2023-04-18T14:10:09.027Z,307.17
2023-04-18T14:12:39.850Z,296.48
2023-04-18T14:15:09.299Z,309.85
2023-04-18T14:17:37.425Z,309.98
2023-04-18T14:20:06.648Z,308.02
2023-04-18T14:22:34.805Z,308.95
2023-04-18T14:25:02.828Z,299.15
2023-04-18T14:27:30.802Z,311.67
2023-04-18T14:30:00.296Z,303.27
2023-04-18T14:32:28.301Z,302.08
2023-04-18T14:34:56.473Z,300.02
2023-04-18T14:37:24.570Z,298.40
2023-04-18T14:39:52.611Z,292.57
2023-04-18T14:42:20.918Z,298.05
2023-04-18T14:44:48.871Z,292.42
2023-04-18T14:47:18.251Z,295.27
2023-04-18T14:49:46.259Z,288.83
2023-04-18T14:52:14.585Z,285.08
2023-04-18T14:54:43.952Z,287.20
2023-04-18T14:57:12.902Z,282.23
2023-04-18T14:59:40.877Z,279.03
2023-04-18T15:02:08.928Z,274.83
2023-04-18T15:04:38.520Z,272.17
2023-04-18T15:07:06.866Z,273.47
2023-04-18T15:09:37.326Z,270.15
2023-04-18T15:12:06.276Z,270.97
2023-04-18T15:14:34.934Z,265.93
2023-04-18T15:17:04.430Z,263.20
2023-04-18T15:19:32.755Z,269.23
2023-04-18T15:22:05.418Z,268.03
2023-04-18T15:24:33.606Z,261.08
2023-04-18T15:27:01.922Z,270.60
2023-04-18T15:29:29.965Z,264.37
2023-04-18T15:31:58.082Z,263.40
2023-04-18T15:34:26.371Z,258.37
2023-04-18T15:36:56.001Z,248.93
2023-04-18T15:39:25.335Z,254.30
2023-04-18T15:41:54.693Z,247.50
2023-04-18T15:44:22.969Z,251.87
2023-04-18T15:46:51.759Z,242.57
2023-04-18T15:49:19.817Z,254.27
2023-04-18T15:51:47.748Z,247.73
2023-04-18T15:54:15.933Z,253.83
2023-04-18T15:56:45.756Z,245.23
2023-04-18T15:59:14.026Z,245.67
2023-04-18T16:01:44.451Z,242.87
2023-04-18T16:04:14.192Z,246.10
2023-04-18T16:06:42.563Z,242.67
2023-04-18T16:09:10.751Z,236.03
2023-04-18T16:11:38.703Z,232.27
2023-04-18T16:14:08.151Z,239.77
2023-04-18T16:16:36.230Z,235.90
2023-04-18T16:19:05.461Z,235.30
2023-04-18T16:21:33.791Z,229.77
2023-04-18T16:24:02.259Z,234.10
2023-04-18T16:26:30.340Z,232.13
2023-04-18T16:28:58.338Z,225.60
2023-04-18T16:31:27.769Z,222.10
2023-04-18T16:33:56.014Z,224.40
2023-04-18T16:36:24.149Z,224.00
2023-04-18T16:38:52.188Z,220.43
2023-04-18T16:41:20.173Z,219.23
2023-04-18T16:43:48.168Z,212.30
2023-04-18T16:46:16.381Z,214.23
2023-04-18T16:48:45.799Z,207.17
2023-04-18T16:51:14.227Z,212.17
2023-04-18T16:53:42.358Z,210.97
2023-04-18T16:56:10.306Z,208.97
2023-04-18T16:58:38.356Z,207.97
2023-04-18T17:01:08.114Z,210.33
2023-04-18T17:03:36.586Z,206.83
2023-04-18T17:06:06.960Z,205.97
2023-04-18T17:08:37.321Z,209.07
2023-04-18T17:11:05.589Z,202.07
2023-04-18T17:13:33.613Z,204.68
2023-04-18T17:16:01.893Z,193.33
2023-04-18T17:18:29.996Z,200.30
2023-04-18T17:20:58.015Z,202.73
2023-04-18T17:23:27.404Z,192.53
2023-04-18T17:25:55.691Z,193.80
2023-04-18T17:28:25.213Z,190.60
2023-04-18T17:30:53.250Z,183.97
2023-04-18T17:33:21.266Z,182.43
2023-04-18T17:35:50.378Z,181.73
2023-04-18T17:38:18.378Z,183.00
2023-04-18T17:40:47.859Z,179.60
2023-04-18T17:43:16.381Z,173.53
2023-04-18T17:45:44.414Z,170.50
2023-04-18T17:48:12.545Z,176.33
2023-04-18T17:50:41.391Z,168.00
2023-04-18T17:53:09.360Z,163.60
2023-04-18T17:55:37.442Z,167.77
2023-04-18T17:58:06.878Z,165.53
2023-04-18T18:00:34.872Z,166.10
2023-04-18T18:03:03.492Z,157.20
2023-04-18T18:05:31.881Z,163.50
2023-04-18T18:08:01.109Z,158.80
2023-04-18T18:10:29.622Z,159.97
2023-04-18T18:12:57.626Z,155.13
2023-04-18T18:15:27.071Z,152.17
2023-04-18T18:17:55.762Z,152.03
2023-04-18T18:20:23.989Z,150.93
2023-04-18T18:22:52.144Z,148.13
2023-04-18T18:25:20.800Z,147.97
2023-04-18T18:27:49.422Z,145.30
2023-04-18T18:30:17.559Z,143.13
2023-04-18T18:32:46.955Z,143.90
2023-04-18T18:35:15.064Z,154.00
2023-04-18T18:37:43.084Z,146.17
2023-04-18T18:40:11.871Z,143.87
2023-04-18T18:42:40.073Z,147.20
2023-04-18T18:45:09.431Z,144.30
2023-04-18T18:47:39.585Z,140.27
2023-04-18T18:50:10.211Z,140.07
2023-04-18T18:52:40.727Z,137.33
2023-04-18T18:55:11.608Z,134.33
2023-04-18T18:57:39.684Z,134.70
2023-04-18T19:00:10.811Z,130.03
2023-04-18T19:02:39.180Z,131.50
2023-04-18T19:05:09.857Z,129.67
2023-04-18T19:07:37.850Z,128.00
2023-04-18T19:10:07.900Z,128.13
2023-04-18T19:12:36.302Z,129.50
2023-04-18T19:15:04.530Z,125.47
2023-04-18T19:17:32.521Z,129.10
2023-04-18T19:20:01.614Z,126.30
2023-04-18T19:22:31.239Z,126.43
2023-04-18T19:25:00.664Z,126.17
2023-04-18T19:27:28.701Z,121.90
2023-04-18T19:29:56.761Z,120.43
2023-04-18T19:32:24.735Z,119.53
2023-04-18T19:34:52.739Z,121.90
2023-04-18T19:37:20.767Z,122.23
2023-04-18T19:39:50.064Z,118.50
2023-04-18T19:42:18.019Z,118.37
2023-04-18T19:44:46.031Z,119.60
2023-04-18T19:47:14.063Z,118.20
2023-04-18T19:49:42.022Z,112.43
2023-04-18T19:52:09.967Z,116.37
2023-04-18T19:54:37.960Z,110.30
2023-04-18T19:57:07.373Z,114.13
2023-04-18T19:59:35.379Z,114.90
2023-04-18T20:02:06.023Z,107.77
2023-04-18T20:04:36.531Z,114.20
2023-04-18T20:07:04.829Z,108.73
2023-04-18T20:09:32.816Z,108.17
2023-04-18T20:12:01.909Z,107.17
2023-04-18T20:14:31.424Z,101.87
2023-04-18T20:16:59.376Z,105.13
2023-04-18T20:19:29.582Z,104.77
2023-04-18T20:21:57.682Z,103.43
2023-04-18T20:24:28.138Z,106.10
2023-04-18T20:26:57.168Z,102.40
2023-04-18T20:29:25.365Z,100.03
2023-04-18T20:31:54.774Z,100.97
2023-04-18T20:34:22.771Z,98.47
2023-04-18T20:36:52.431Z,101.07
2023-04-18T20:39:20.509Z,95.70
2023-04-18T20:41:51.318Z,98.23
2023-04-18T20:44:20.891Z,96.07
2023-04-18T20:46:49.312Z,97.67
2023-04-18T20:49:18.678Z,94.10
2023-04-18T20:51:46.849Z,96.40
2023-04-18T20:54:15.323Z,96.03
2023-04-18T20:56:43.561Z,96.27
2023-04-18T20:59:11.644Z,92.67
2023-04-18T21:01:39.630Z,96.83
2023-04-18T21:04:07.913Z,97.43
2023-04-18T21:06:37.572Z,90.40
2023-04-18T21:09:06.521Z,89.83
2023-04-18T21:11:34.722Z,91.03
2023-04-18T21:14:03.823Z,89.87
2023-04-18T21:16:31.908Z,90.67
2023-04-18T21:18:59.970Z,90.90
2023-04-18T21:21:27.933Z,88.80
2023-04-18T21:23:57.337Z,88.77
2023-04-18T21:26:25.462Z,85.30
2023-04-18T21:28:56.576Z,88.43
2023-04-18T21:31:25.002Z,83.90
2023-04-18T21:33:54.148Z,87.73
2023-04-18T21:36:22.180Z,85.63
2023-04-18T21:38:53.142Z,87.60
2023-04-18T21:41:22.886Z,84.90
2023-04-18T21:43:51.163Z,83.73
2023-04-18T21:46:19.875Z,83.93
2023-04-18T21:48:48.543Z,86.63
2023-04-18T21:51:17.927Z,84.30
2023-04-18T21:53:46.333Z,86.83
2023-04-18T21:56:14.937Z,81.73
2023-04-18T21:58:44.244Z,87.23
2023-04-18T22:01:12.288Z,81.37
2023-04-18T22:03:40.588Z,81.57
2023-04-18T22:06:08.722Z,82.70
2023-04-18T22:08:36.747Z,81.60
2023-04-18T22:11:05.121Z,81.43
2023-04-18T22:13:35.269Z,80.47
2023-04-18T22:16:05.232Z,78.47
2023-04-18T22:18:34.396Z,80.27
2023-04-18T22:21:03.261Z,78.80
2023-04-18T22:23:31.922Z,80.13
2023-04-18T22:25:59.918Z,81.00
2023-04-18T22:28:28.846Z,79.33
2023-04-18T22:30:56.989Z,77.53
2023-04-18T22:33:26.465Z,78.60
2023-04-18T22:35:55.556Z,78.13
2023-04-18T22:38:23.612Z,77.97
2023-04-18T22:40:51.624Z,79.50
2023-04-18T22:43:22.718Z,78.13
2023-04-18T22:45:51.150Z,77.23
2023-04-18T22:48:19.385Z,75.53
2023-04-18T22:50:49.894Z,76.03
2023-04-18T22:53:18.178Z,75.27
2023-04-18T22:55:46.598Z,78.53
2023-04-18T22:58:14.656Z,75.33
2023-04-18T23:00:42.714Z,75.47
2023-04-18T23:03:10.854Z,78.20
2023-04-18T23:05:38.971Z,78.90
2023-04-18T23:08:08.336Z,76.93
2023-04-18T23:10:36.562Z,78.00
2023-04-18T23:13:04.590Z,74.80
2023-04-18T23:15:32.676Z,78.00
2023-04-18T23:18:00.786Z,78.63
2023-04-18T23:20:28.883Z,74.23
2023-04-18T23:22:56.920Z,78.43
2023-04-18T23:25:26.270Z,76.10
2023-04-18T23:27:54.263Z,79.90
2023-04-18T23:30:22.269Z,76.57
2023-04-18T23:32:50.280Z,78.90
2023-04-18T23:35:18.671Z,77.73
2023-04-18T23:37:46.605Z,76.27
2023-04-18T23:40:14.644Z,75.83
2023-04-18T23:42:43.970Z,76.50
2023-04-18T23:45:12.735Z,74.67
2023-04-18T23:47:40.737Z,76.17
2023-04-18T23:50:10.273Z,76.10
2023-04-18T23:52:38.685Z,77.50
2023-04-18T23:55:07.521Z,76.57
2023-04-18T23:57:35.586Z,75.37
